createdAt,value
2022-12-05T00:00:19.718Z,33.42
2022-12-05T00:02:51.606Z,31.02
2022-12-05T00:05:23.681Z,31.77
2022-12-05T00:07:55.584Z,33.05
2022-12-05T00:10:27.645Z,32.28
2022-12-05T00:12:59.573Z,28.50
2022-12-05T00:15:31.629Z,28.52
2022-12-05T00:18:03.605Z,26.08
2022-12-05T00:20:35.540Z,25.75
2022-12-05T00:23:07.412Z,22.40
2022-12-05T00:25:39.469Z,23.70
2022-12-05T00:28:11.388Z,23.63
2022-12-05T00:30:43.254Z,22.35
2022-12-05T00:33:15.170Z,23.52
2022-12-05T00:35:47.050Z,24.35
2022-12-05T00:38:18.991Z,24.88
2022-12-05T00:40:50.851Z,24.45
2022-12-05T00:43:22.960Z,23.88
2022-12-05T00:45:54.912Z,25.20
2022-12-05T00:48:26.862Z,26.95
2022-12-05T00:51:05.155Z,24.40
2022-12-05T00:53:37.322Z,26.33
2022-12-05T00:56:12.701Z,23.95
2022-12-05T00:58:45.502Z,25.48
2022-12-05T01:01:19.197Z,26.82
2022-12-05T01:03:54.157Z,25.65
2022-12-05T01:06:27.482Z,27.60
2022-12-05T01:08:59.656Z,26.55
2022-12-05T01:11:35.046Z,23.75
2022-12-05T01:14:11.771Z,24.50
2022-12-05T01:16:46.689Z,22.58
2022-12-05T01:19:24.366Z,22.20
2022-12-05T01:21:56.946Z,18.55
2022-12-05T01:24:29.913Z,18.27
2022-12-05T01:27:04.096Z,15.85
2022-12-05T01:29:35.975Z,15.02
2022-12-05T01:32:07.992Z,15.10
2022-12-05T01:34:39.942Z,14.60
2022-12-05T01:37:11.879Z,14.77
2022-12-05T01:39:43.792Z,14.35
2022-12-05T01:42:15.650Z,13.07
2022-12-05T01:44:47.503Z,14.50
2022-12-05T01:47:19.882Z,13.90
2022-12-05T01:49:51.856Z,14.00
2022-12-05T01:52:26.544Z,14.15
2022-12-05T01:55:03.143Z,13.00
2022-12-05T01:57:35.347Z,12.15
2022-12-05T02:00:13.840Z,13.05
2022-12-05T02:02:52.883Z,12.02
2022-12-05T02:05:34.051Z,11.35
2022-12-05T02:08:09.580Z,11.07
2022-12-05T02:10:46.441Z,9.73
2022-12-05T02:13:45.530Z,9.15
2022-12-05T02:16:42.039Z,9.38
2022-12-05T02:19:51.445Z,6.38
2022-12-05T02:23:03.751Z,6.97
2022-12-05T02:26:17.749Z,6.95
2022-12-05T02:29:21.476Z,4.50
2022-12-05T02:32:16.589Z,4.80
2022-12-05T02:35:08.204Z,4.13
2022-12-05T02:37:43.422Z,4.43
2022-12-05T02:40:34.235Z,5.10
2022-12-05T02:43:36.967Z,4.63
2022-12-05T02:46:22.399Z,4.78
2022-12-05T02:49:05.786Z,5.57
2022-12-05T02:51:48.301Z,7.50
2022-12-05T02:54:24.309Z,8.55
2022-12-05T02:56:59.993Z,10.95
2022-12-05T02:59:32.022Z,11.80
2022-12-05T03:02:04.292Z,12.88
2022-12-05T03:04:36.994Z,14.52
2022-12-05T03:07:12.311Z,14.70
2022-12-05T03:09:49.612Z,15.88
2022-12-05T03:12:32.389Z,15.18
2022-12-05T03:15:16.970Z,15.23
2022-12-05T03:17:56.367Z,14.82
2022-12-05T03:20:48.339Z,14.30
2022-12-05T03:23:30.333Z,14.65
2022-12-05T03:26:17.211Z,14.90
2022-12-05T03:28:51.932Z,14.27
2022-12-05T03:31:57.311Z,13.98
2022-12-05T03:35:05.116Z,12.57
2022-12-05T03:37:57.077Z,13.60
2022-12-05T03:40:39.084Z,13.93
2022-12-05T03:43:25.390Z,13.93
2022-12-05T03:46:01.219Z,12.85
2022-12-05T03:49:07.252Z,12.82
2022-12-05T03:51:45.946Z,13.23
2022-12-05T03:54:20.611Z,13.90
2022-12-05T03:57:11.230Z,13.13
2022-12-05T04:00:13.034Z,12.65
2022-12-05T04:05:32.711Z,12.60
2022-12-05T04:08:17.846Z,12.75
2022-12-05T04:10:53.546Z,12.30
2022-12-05T04:13:32.265Z,12.05
2022-12-05T04:16:37.543Z,11.85
2022-12-05T04:19:17.463Z,11.82
2022-12-05T04:21:53.523Z,11.50
2022-12-05T04:24:47.607Z,11.40
2022-12-05T04:27:31.213Z,11.05
2022-12-05T04:30:26.772Z,11.65
2022-12-05T04:33:23.761Z,10.90
2022-12-05T04:36:19.338Z,10.25
2022-12-05T04:39:00.516Z,9.80
2022-12-05T04:42:14.612Z,9.43
2022-12-05T04:44:52.306Z,9.85
2022-12-05T04:47:29.898Z,9.90
2022-12-05T04:50:04.372Z,10.85
2022-12-05T04:52:37.650Z,9.80
2022-12-05T04:55:14.996Z,11.57
2022-12-05T04:58:09.461Z,14.65
2022-12-05T05:01:05.094Z,11.50
2022-12-05T05:03:50.282Z,9.82
2022-12-05T05:06:22.196Z,9.95
2022-12-05T05:08:57.181Z,10.23
2022-12-05T05:11:32.301Z,10.90
2022-12-05T05:14:05.253Z,11.07
2022-12-05T05:16:39.950Z,10.15
2022-12-05T05:19:12.496Z,11.00
2022-12-05T05:21:44.505Z,10.88
2022-12-05T05:24:16.422Z,10.27
2022-12-05T05:26:52.431Z,9.23
2022-12-05T05:29:27.508Z,9.20
2022-12-05T05:31:59.537Z,9.02
2022-12-05T05:34:31.458Z,9.90
2022-12-05T05:37:03.365Z,9.98
2022-12-05T05:39:35.223Z,9.73
2022-12-05T05:42:07.120Z,9.68
2022-12-05T05:44:39.034Z,8.85
2022-12-05T05:47:11.331Z,8.15
2022-12-05T05:49:43.289Z,6.72
2022-12-05T05:52:15.212Z,6.53
2022-12-05T05:54:47.160Z,5.82
2022-12-05T05:57:20.476Z,5.78
2022-12-05T05:59:52.673Z,5.85
2022-12-05T06:02:24.647Z,7.70
2022-12-05T06:04:56.543Z,6.70
2022-12-05T06:07:28.635Z,6.88
2022-12-05T06:10:01.073Z,7.75
2022-12-05T06:12:33.212Z,6.57
2022-12-05T06:15:05.782Z,10.38
2022-12-05T06:17:37.782Z,5.82
2022-12-05T06:20:10.133Z,8.82
2022-12-05T06:22:42.499Z,6.60
2022-12-05T06:25:14.554Z,6.35
2022-12-05T06:27:46.443Z,9.50
2022-12-05T06:30:18.412Z,5.28
2022-12-05T06:32:50.417Z,6.85
2022-12-05T06:35:22.349Z,4.13
2022-12-05T06:37:54.236Z,3.65
2022-12-05T06:40:26.659Z,3.40
2022-12-05T06:42:58.641Z,4.15
2022-12-05T06:45:30.516Z,3.03
2022-12-05T06:48:02.413Z,3.72
2022-12-05T06:50:34.297Z,4.53
2022-12-05T06:53:06.136Z,2.45
2022-12-05T06:55:37.979Z,3.45
2022-12-05T06:58:10.010Z,3.33
2022-12-05T07:01:00.512Z,2.97
2022-12-05T07:03:32.493Z,2.45
2022-12-05T07:06:06.342Z,4.57
2022-12-05T07:08:38.264Z,5.53
2022-12-05T07:11:10.239Z,4.18
2022-12-05T07:13:42.389Z,3.40
2022-12-05T07:16:14.717Z,6.72
2022-12-05T07:18:46.692Z,5.75
2022-12-05T07:21:21.076Z,7.05
2022-12-05T07:23:53.111Z,4.82
2022-12-05T07:26:25.147Z,6.68
2022-12-05T07:28:57.984Z,2.42
2022-12-05T07:31:30.010Z,4.60
2022-12-05T07:34:01.944Z,4.40
2022-12-05T07:36:34.550Z,2.28
2022-12-05T07:39:06.419Z,1.90
2022-12-05T07:41:38.408Z,5.63
2022-12-05T07:44:13.494Z,7.68
2022-12-05T07:46:45.389Z,7.32
2022-12-05T07:49:17.329Z,5.80
2022-12-05T07:51:49.471Z,3.63
2022-12-05T07:54:21.390Z,4.03
2022-12-05T07:56:53.290Z,3.17
2022-12-05T07:59:25.184Z,5.55
2022-12-05T08:01:57.315Z,4.07
2022-12-05T08:04:29.331Z,2.50
2022-12-05T08:07:01.301Z,2.90
2022-12-05T08:09:33.335Z,6.25
2022-12-05T08:12:05.718Z,6.10
2022-12-05T08:14:37.761Z,4.30
2022-12-05T08:17:09.671Z,7.40
2022-12-05T08:19:41.622Z,5.80
2022-12-05T08:22:13.617Z,3.80
2022-12-05T08:24:45.591Z,11.77
2022-12-05T08:27:17.541Z,8.20
2022-12-05T08:29:49.489Z,6.95
2022-12-05T08:32:21.847Z,8.82
2022-12-05T08:34:54.013Z,5.63
2022-12-05T08:37:26.328Z,4.82
2022-12-05T08:39:58.594Z,5.55
2022-12-05T08:42:31.442Z,9.35
2022-12-05T08:45:03.570Z,4.40
2022-12-05T08:47:36.192Z,8.85
2022-12-05T08:50:08.595Z,8.27
2022-12-05T08:52:40.489Z,5.05
2022-12-05T08:55:12.810Z,7.60
2022-12-05T08:57:44.655Z,4.78
2022-12-05T09:00:17.193Z,2.88
2022-12-05T09:02:52.261Z,4.15
2022-12-05T09:05:28.785Z,6.32
2022-12-05T09:08:01.448Z,8.23
2022-12-05T09:10:33.855Z,6.18
2022-12-05T09:13:05.771Z,7.97
2022-12-05T09:15:39.082Z,6.05
2022-12-05T09:18:12.725Z,5.53
2022-12-05T09:20:44.693Z,5.80
2022-12-05T09:23:16.730Z,5.47
2022-12-05T09:25:58.219Z,6.30
2022-12-05T09:31:05.425Z,9.63
2022-12-05T09:33:38.207Z,6.40
2022-12-05T09:36:25.047Z,32.67
2022-12-05T09:39:01.512Z,5.03
2022-12-05T09:42:02.108Z,6.57
2022-12-05T09:44:55.640Z,4.80
2022-12-05T09:48:00.434Z,7.20
2022-12-05T09:50:58.210Z,7.15
2022-12-05T09:53:56.474Z,9.90
2022-12-05T09:56:30.792Z,8.73
2022-12-05T09:59:02.721Z,5.60
2022-12-05T10:01:44.136Z,9.48
2022-12-05T10:07:11.552Z,17.55
2022-12-05T10:10:34.864Z,9.65
2022-12-05T10:13:25.279Z,9.65
2022-12-05T10:16:07.462Z,10.73
2022-12-05T10:18:50.921Z,8.90
2022-12-05T10:21:37.853Z,10.57
2022-12-05T10:24:21.929Z,10.35
2022-12-05T10:27:01.592Z,14.05
2022-12-05T10:29:44.323Z,10.45
2022-12-05T10:32:23.035Z,12.90
2022-12-05T10:35:02.497Z,12.63
2022-12-05T10:37:34.473Z,11.63
2022-12-05T10:40:11.629Z,12.18
2022-12-05T10:42:44.368Z,9.80
2022-12-05T10:45:22.404Z,6.88
2022-12-05T10:47:57.408Z,13.25
2022-12-05T10:50:39.422Z,4.70
2022-12-05T10:53:39.267Z,3.05
2022-12-05T10:56:40.462Z,7.00
2022-12-05T10:59:15.755Z,9.65
2022-12-05T11:01:59.799Z,9.05
2022-12-05T11:04:43.517Z,7.80
2022-12-05T11:07:30.595Z,6.85
2022-12-05T11:10:21.143Z,6.95
2022-12-05T11:12:58.688Z,11.95
2022-12-05T11:15:31.628Z,5.60
2022-12-05T11:18:24.652Z,4.00
2022-12-05T11:21:09.201Z,5.03
2022-12-05T11:23:41.817Z,5.57
2022-12-05T11:26:20.715Z,3.95
2022-12-05T11:28:52.635Z,4.90
2022-12-05T11:31:30.113Z,5.80
2022-12-05T11:34:17.618Z,4.28
2022-12-05T11:37:05.779Z,4.95
2022-12-05T11:39:37.752Z,4.28
2022-12-05T11:42:32.621Z,4.25
2022-12-05T11:45:21.257Z,5.15
2022-12-05T11:48:11.814Z,3.97
2022-12-05T11:51:11.465Z,5.75
2022-12-05T11:54:08.788Z,7.05
2022-12-05T11:56:53.039Z,14.88
2022-12-05T11:59:34.834Z,35.60
2022-12-05T12:02:49.680Z,23.67
2022-12-05T12:05:51.529Z,6.28
2022-12-05T12:08:29.190Z,22.92
2022-12-05T12:11:10.082Z,8.48
2022-12-05T12:14:05.862Z,7.22
2022-12-05T12:17:16.487Z,5.53
2022-12-05T12:19:55.861Z,5.75
2022-12-05T12:22:54.738Z,14.25
2022-12-05T12:26:03.457Z,6.72
2022-12-05T12:28:55.142Z,6.20
2022-12-05T12:31:42.783Z,12.20
2022-12-05T12:34:52.133Z,6.30
2022-12-05T12:38:00.840Z,8.07
2022-12-05T12:40:40.029Z,9.07
2022-12-05T12:43:55.111Z,24.73
2022-12-05T12:46:39.194Z,18.75
2022-12-05T12:49:30.586Z,26.23
2022-12-05T12:52:14.697Z,7.95
2022-12-05T12:55:15.613Z,6.88
2022-12-05T12:57:54.902Z,7.10
2022-12-05T13:00:45.731Z,7.83
2022-12-05T13:03:25.707Z,6.85
2022-12-05T13:06:14.371Z,7.07
2022-12-05T13:08:59.780Z,6.10
2022-12-05T13:11:38.478Z,5.50
2022-12-05T13:14:14.589Z,4.05
2022-12-05T13:16:50.590Z,5.43
2022-12-05T13:19:41.349Z,6.47
2022-12-05T13:22:15.064Z,8.90
2022-12-05T13:24:47.582Z,3.95
2022-12-05T13:27:24.568Z,9.88
2022-12-05T13:30:00.749Z,10.20
2022-12-05T13:32:38.534Z,8.43
2022-12-05T13:35:46.541Z,4.80
2022-12-05T13:38:50.360Z,3.50
2022-12-05T13:41:40.761Z,3.70
2022-12-05T13:44:15.467Z,6.75
2022-12-05T13:46:51.389Z,11.57
2022-12-05T13:49:35.342Z,10.20
2022-12-05T13:52:17.125Z,4.28
2022-12-05T13:55:04.810Z,3.10
2022-12-05T13:57:39.732Z,3.70
2022-12-05T14:00:12.786Z,5.75
2022-12-05T14:02:47.821Z,5.65
2022-12-05T14:05:22.667Z,6.70
2022-12-05T14:07:59.754Z,8.50
2022-12-05T14:10:37.192Z,6.07
2022-12-05T14:13:18.035Z,27.45
2022-12-05T14:15:53.977Z,5.43
2022-12-05T14:18:25.911Z,6.90
2022-12-05T14:21:03.919Z,7.35
2022-12-05T14:23:52.579Z,6.82
2022-12-05T14:26:31.645Z,5.97
2022-12-05T14:29:15.491Z,5.53
2022-12-05T14:32:21.268Z,6.50
2022-12-05T14:35:16.387Z,7.30
2022-12-05T14:38:02.565Z,6.43
2022-12-05T14:40:43.990Z,5.57
2022-12-05T14:46:03.564Z,6.32
2022-12-05T14:48:37.850Z,4.10
2022-12-05T14:51:30.356Z,5.10
2022-12-05T14:54:16.425Z,5.22
2022-12-05T14:57:08.724Z,5.75
2022-12-05T14:59:49.986Z,6.00
2022-12-05T15:02:35.877Z,7.03
2022-12-05T15:05:30.405Z,7.85
2022-12-05T15:08:04.943Z,7.95
2022-12-05T15:10:38.959Z,7.90
2022-12-05T15:13:15.938Z,6.00
2022-12-05T15:16:30.041Z,7.70
2022-12-05T15:19:08.277Z,6.35
2022-12-05T15:21:44.871Z,6.13
2022-12-05T15:24:18.799Z,5.97
2022-12-05T15:26:57.643Z,5.82
2022-12-05T15:29:32.868Z,5.85
2022-12-05T15:32:10.655Z,10.60
2022-12-05T15:34:53.889Z,10.70
2022-12-05T15:37:38.718Z,8.63
2022-12-05T15:40:14.354Z,8.18
2022-12-05T15:42:50.563Z,9.07
2022-12-05T15:45:30.044Z,8.60
2022-12-05T15:48:08.154Z,9.95
2022-12-05T15:50:46.344Z,9.57
2022-12-05T15:53:37.096Z,10.35
2022-12-05T15:56:14.828Z,8.43
2022-12-05T15:59:03.626Z,8.57
2022-12-05T16:01:43.373Z,10.77
2022-12-05T16:04:29.351Z,10.73
2022-12-05T16:07:09.651Z,15.02
2022-12-05T16:09:44.258Z,14.82
2022-12-05T16:12:34.499Z,11.75
2022-12-05T16:15:22.421Z,43.85
2022-12-05T16:18:00.450Z,40.08
2022-12-05T16:20:36.957Z,82.25
2022-12-05T16:23:30.358Z,41.28
2022-12-05T16:26:24.641Z,21.10
2022-12-05T16:28:58.827Z,11.40
2022-12-05T16:31:32.752Z,31.63
2022-12-05T16:34:14.762Z,17.95
2022-12-05T16:36:51.337Z,23.35
2022-12-05T16:39:24.595Z,19.45
2022-12-05T16:41:56.636Z,15.45
2022-12-05T16:44:28.547Z,16.13
2022-12-05T16:47:00.496Z,28.90
2022-12-05T16:49:39.989Z,15.82
2022-12-05T16:52:15.577Z,11.43
2022-12-05T16:54:49.092Z,10.70
2022-12-05T16:57:20.992Z,14.95
2022-12-05T16:59:52.967Z,9.65
2022-12-05T17:02:24.914Z,15.63
2022-12-05T17:04:57.299Z,14.38
2022-12-05T17:07:33.698Z,8.70
2022-12-05T17:10:07.097Z,13.40
2022-12-05T17:12:41.167Z,10.35
2022-12-05T17:15:22.822Z,15.60
2022-12-05T17:17:56.649Z,9.65
2022-12-05T17:20:28.526Z,15.15
2022-12-05T17:23:00.520Z,12.32
2022-12-05T17:25:37.036Z,11.02
2022-12-05T17:28:08.962Z,12.50
2022-12-05T17:30:41.033Z,10.15
2022-12-05T17:33:15.413Z,13.65
2022-12-05T17:35:47.574Z,9.65
2022-12-05T17:38:19.542Z,11.88
2022-12-05T17:40:51.717Z,10.85
2022-12-05T17:43:25.411Z,15.00
2022-12-05T17:46:02.193Z,10.80
2022-12-05T17:48:34.383Z,13.40
2022-12-05T17:51:11.257Z,12.00
2022-12-05T17:53:47.455Z,8.90
2022-12-05T17:56:22.063Z,16.25
2022-12-05T17:58:53.919Z,16.80
2022-12-05T18:01:28.891Z,19.33
2022-12-05T18:04:00.953Z,13.73
2022-12-05T18:06:33.652Z,18.27
2022-12-05T18:09:05.557Z,19.30
2022-12-05T18:11:37.481Z,13.13
2022-12-05T18:14:10.497Z,14.75
2022-12-05T18:16:43.171Z,20.65
2022-12-05T18:19:15.138Z,18.92
2022-12-05T18:21:48.159Z,22.80
2022-12-05T18:24:20.080Z,21.73
2022-12-05T18:26:52.131Z,14.02
2022-12-05T18:29:24.203Z,17.27
2022-12-05T18:31:56.193Z,18.17
2022-12-05T18:34:28.107Z,17.90
2022-12-05T18:37:00.113Z,17.52
2022-12-05T18:39:32.097Z,18.30
2022-12-05T18:42:09.027Z,21.00
2022-12-05T18:44:45.243Z,16.13
2022-12-05T18:47:17.271Z,13.07
2022-12-05T18:49:49.187Z,17.58
2022-12-05T18:52:21.481Z,19.55
2022-12-05T18:55:09.152Z,16.73
2022-12-05T18:57:45.302Z,21.85
2022-12-05T19:00:17.855Z,20.67
2022-12-05T19:02:49.820Z,18.80
2022-12-05T19:05:23.360Z,20.50
2022-12-05T19:07:55.330Z,15.85
2022-12-05T19:10:27.460Z,18.58
2022-12-05T19:12:59.501Z,14.43
2022-12-05T19:15:31.443Z,14.90
2022-12-05T19:18:03.412Z,16.35
2022-12-05T19:20:35.295Z,15.07
2022-12-05T19:23:09.434Z,14.77
2022-12-05T19:25:41.373Z,16.55
2022-12-05T19:28:14.647Z,20.38
2022-12-05T19:30:48.539Z,23.88
2022-12-05T19:33:20.374Z,24.77
2022-12-05T19:35:52.296Z,19.30
2022-12-05T19:38:24.206Z,17.65
2022-12-05T19:40:57.399Z,17.10
2022-12-05T19:43:31.542Z,17.13
2022-12-05T19:46:06.180Z,21.23
2022-12-05T19:48:38.424Z,18.52
2022-12-05T19:51:11.267Z,20.10
2022-12-05T19:53:50.322Z,18.37
2022-12-05T19:56:24.857Z,17.63
2022-12-05T19:58:58.332Z,17.25
2022-12-05T20:01:34.383Z,16.75
2022-12-05T20:04:15.446Z,20.30
2022-12-05T20:06:50.829Z,18.85
2022-12-05T20:09:23.373Z,19.70
2022-12-05T20:11:56.217Z,17.92
2022-12-05T20:14:28.183Z,20.08
2022-12-05T20:17:00.621Z,19.48
2022-12-05T20:19:32.608Z,19.75
2022-12-05T20:22:04.475Z,23.40
2022-12-05T20:24:36.678Z,24.88
2022-12-05T20:27:09.585Z,21.83
2022-12-05T20:29:41.568Z,21.10
2022-12-05T20:32:13.529Z,22.43
2022-12-05T20:34:45.423Z,47.40
2022-12-05T20:37:17.426Z,22.10
2022-12-05T20:39:50.767Z,20.77
2022-12-05T20:42:22.731Z,21.48
2022-12-05T20:44:54.762Z,21.42
2022-12-05T20:47:26.670Z,22.00
2022-12-05T20:49:58.987Z,23.15
2022-12-05T20:52:31.544Z,29.88
2022-12-05T20:55:04.282Z,24.63
2022-12-05T20:57:38.111Z,39.38
2022-12-05T21:00:10.595Z,24.55
2022-12-05T21:02:43.482Z,25.55
2022-12-05T21:05:15.668Z,23.80
2022-12-05T21:07:47.765Z,21.95
2022-12-05T21:10:19.725Z,21.15
2022-12-05T21:12:51.650Z,23.00
2022-12-05T21:15:23.635Z,23.92
2022-12-05T21:17:55.519Z,25.77
2022-12-05T21:20:27.440Z,25.75
2022-12-05T21:22:59.431Z,27.65
2022-12-05T21:25:32.966Z,27.15
2022-12-05T21:28:05.026Z,28.33
2022-12-05T21:30:37.101Z,26.33
2022-12-05T21:33:12.065Z,27.60
2022-12-05T21:35:53.789Z,28.02
2022-12-05T21:38:25.821Z,28.40
2022-12-05T21:40:57.757Z,26.20
2022-12-05T21:43:30.093Z,25.77
2022-12-05T21:46:02.300Z,28.30
2022-12-05T21:48:34.805Z,27.35
2022-12-05T21:51:08.324Z,24.98
2022-12-05T21:53:40.318Z,26.85
2022-12-05T21:56:17.567Z,22.05
2022-12-05T21:58:49.585Z,21.55
2022-12-05T22:01:24.852Z,19.58
2022-12-05T22:03:59.642Z,18.58
2022-12-05T22:06:35.120Z,20.45
2022-12-05T22:09:07.091Z,19.65
2022-12-05T22:11:38.952Z,17.88
2022-12-05T22:14:10.813Z,17.83
2022-12-05T22:16:42.833Z,17.25
2022-12-05T22:19:14.818Z,21.55
2022-12-05T22:21:46.721Z,17.90
2022-12-05T22:24:18.812Z,17.42
2022-12-05T22:26:50.778Z,19.10
2022-12-05T22:29:22.813Z,17.27
2022-12-05T22:31:54.705Z,18.00
2022-12-05T22:34:26.663Z,21.52
2022-12-05T22:36:58.797Z,21.33
2022-12-05T22:39:30.704Z,20.52
2022-12-05T22:42:02.704Z,19.58
2022-12-05T22:44:34.610Z,17.05
2022-12-05T22:47:06.571Z,19.85
2022-12-05T22:49:38.570Z,18.27
2022-12-05T22:52:10.453Z,17.25
2022-12-05T22:54:43.350Z,17.42
2022-12-05T22:57:15.283Z,17.65
2022-12-05T22:59:47.214Z,17.10
2022-12-05T23:02:19.077Z,19.65
2022-12-05T23:04:50.971Z,20.20
2022-12-05T23:07:22.926Z,18.65
2022-12-05T23:09:54.826Z,19.20
2022-12-05T23:12:27.126Z,14.88
2022-12-05T23:14:59.054Z,15.25
2022-12-05T23:17:30.991Z,18.50
2022-12-05T23:20:03.306Z,17.77
2022-12-05T23:22:35.434Z,15.93
2022-12-05T23:25:07.990Z,20.08
2022-12-05T23:27:40.363Z,20.67
2022-12-05T23:30:14.047Z,17.33
2022-12-05T23:32:46.105Z,17.67
2022-12-05T23:35:17.971Z,20.45
2022-12-05T23:37:50.028Z,21.17
2022-12-05T23:40:21.980Z,19.08
2022-12-05T23:42:53.854Z,17.58
2022-12-05T23:45:25.781Z,20.17
2022-12-05T23:48:01.744Z,17.55
2022-12-05T23:50:36.665Z,23.25
2022-12-05T23:53:08.674Z,18.40
2022-12-05T23:55:40.602Z,15.57
2022-12-05T23:58:12.493Z,20.92
